sensor_id;sensor_type;location;lat;lon;timestamp;P1;durP1;ratioP1;P2;durP2;ratioP2
17965;SDS011;9108;53.204;10.424;2023-02-22T00:00:28;17.80;;;8.38;;
17965;SDS011;9108;53.204;10.424;2023-02-22T00:03:07;16.48;;;8.45;;
17965;SDS011;9108;53.204;10.424;2023-02-22T00:05:36;16.60;;;8.32;;
17965;SDS011;9108;53.204;10.424;2023-02-22T00:08:04;16.48;;;8.63;;
17965;SDS011;9108;53.204;10.424;2023-02-22T00:10:33;16.30;;;8.50;;
17965;SDS011;9108;53.204;10.424;2023-02-22T00:13:02;18.77;;;8.93;;
17965;SDS011;9108;53.204;10.424;2023-02-22T00:15:31;18.98;;;9.27;;
17965;SDS011;9108;53.204;10.424;2023-02-22T00:17:58;17.17;;;9.65;;
17965;SDS011;9108;53.204;10.424;2023-02-22T00:20:25;19.60;;;9.90;;
17965;SDS011;9108;53.204;10.424;2023-02-22T00:22:53;18.45;;;9.50;;
17965;SDS011;9108;53.204;10.424;2023-02-22T00:25:21;19.08;;;9.85;;
17965;SDS011;9108;53.204;10.424;2023-02-22T00:27:49;20.13;;;9.80;;
17965;SDS011;9108;53.204;10.424;2023-02-22T00:30:18;19.20;;;9.43;;
17965;SDS011;9108;53.204;10.424;2023-02-22T00:32:46;19.25;;;9.82;;
17965;SDS011;9108;53.204;10.424;2023-02-22T00:35:13;22.30;;;9.60;;
17965;SDS011;9108;53.204;10.424;2023-02-22T00:37:41;23.17;;;10.95;;
17965;SDS011;9108;53.204;10.424;2023-02-22T00:40:10;23.48;;;10.80;;
17965;SDS011;9108;53.204;10.424;2023-02-22T00:42:38;22.15;;;10.95;;
17965;SDS011;9108;53.204;10.424;2023-02-22T00:45:06;32.05;;;13.52;;
17965;SDS011;9108;53.204;10.424;2023-02-22T00:47:33;30.35;;;13.07;;
17965;SDS011;9108;53.204;10.424;2023-02-22T00:50:00;31.23;;;13.63;;
17965;SDS011;9108;53.204;10.424;2023-02-22T00:52:28;37.90;;;15.45;;
17965;SDS011;9108;53.204;10.424;2023-02-22T00:54:55;43.05;;;16.65;;
17965;SDS011;9108;53.204;10.424;2023-02-22T00:57:25;39.33;;;16.67;;
17965;SDS011;9108;53.204;10.424;2023-02-22T00:59:52;43.10;;;17.05;;
17965;SDS011;9108;53.204;10.424;2023-02-22T01:02:19;43.28;;;16.60;;
17965;SDS011;9108;53.204;10.424;2023-02-22T01:04:46;55.65;;;17.50;;
17965;SDS011;9108;53.204;10.424;2023-02-22T01:07:14;44.05;;;17.13;;
17965;SDS011;9108;53.204;10.424;2023-02-22T01:09:41;47.42;;;17.58;;
17965;SDS011;9108;53.204;10.424;2023-02-22T01:12:08;39.58;;;16.05;;
17965;SDS011;9108;53.204;10.424;2023-02-22T01:14:39;46.45;;;16.40;;
17965;SDS011;9108;53.204;10.424;2023-02-22T01:17:06;51.67;;;18.23;;
17965;SDS011;9108;53.204;10.424;2023-02-22T01:19:34;57.10;;;19.70;;
17965;SDS011;9108;53.204;10.424;2023-02-22T01:22:01;55.70;;;17.77;;
17965;SDS011;9108;53.204;10.424;2023-02-22T01:24:29;53.35;;;18.67;;
17965;SDS011;9108;53.204;10.424;2023-02-22T01:26:56;53.22;;;18.23;;
17965;SDS011;9108;53.204;10.424;2023-02-22T01:29:23;54.42;;;17.75;;
17965;SDS011;9108;53.204;10.424;2023-02-22T01:31:52;47.28;;;16.75;;
17965;SDS011;9108;53.204;10.424;2023-02-22T01:34:20;51.65;;;16.27;;
17965;SDS011;9108;53.204;10.424;2023-02-22T01:36:47;46.03;;;16.48;;
17965;SDS011;9108;53.204;10.424;2023-02-22T01:39:14;44.78;;;15.57;;
17965;SDS011;9108;53.204;10.424;2023-02-22T01:41:42;43.97;;;16.43;;
17965;SDS011;9108;53.204;10.424;2023-02-22T01:44:20;49.42;;;16.85;;
17965;SDS011;9108;53.204;10.424;2023-02-22T01:46:48;53.55;;;17.88;;
17965;SDS011;9108;53.204;10.424;2023-02-22T01:49:17;51.27;;;17.60;;
17965;SDS011;9108;53.204;10.424;2023-02-22T01:51:46;50.38;;;17.45;;
17965;SDS011;9108;53.204;10.424;2023-02-22T01:54:17;49.45;;;17.45;;
17965;SDS011;9108;53.204;10.424;2023-02-22T01:56:46;45.80;;;16.50;;
17965;SDS011;9108;53.204;10.424;2023-02-22T01:59:15;46.47;;;16.25;;
17965;SDS011;9108;53.204;10.424;2023-02-22T02:01:43;49.88;;;18.00;;
17965;SDS011;9108;53.204;10.424;2023-02-22T02:04:11;46.45;;;17.25;;
17965;SDS011;9108;53.204;10.424;2023-02-22T02:06:40;51.78;;;17.77;;
17965;SDS011;9108;53.204;10.424;2023-02-22T02:09:09;56.38;;;17.85;;
17965;SDS011;9108;53.204;10.424;2023-02-22T02:11:37;53.78;;;17.42;;
17965;SDS011;9108;53.204;10.424;2023-02-22T02:14:06;50.47;;;17.70;;
17965;SDS011;9108;53.204;10.424;2023-02-22T02:16:34;55.50;;;17.30;;
17965;SDS011;9108;53.204;10.424;2023-02-22T02:19:04;50.63;;;17.52;;
17965;SDS011;9108;53.204;10.424;2023-02-22T02:21:45;52.25;;;17.42;;
17965;SDS011;9108;53.204;10.424;2023-02-22T02:27:13;52.25;;;17.17;;
17965;SDS011;9108;53.204;10.424;2023-02-22T02:32:32;56.80;;;17.35;;
17965;SDS011;9108;53.204;10.424;2023-02-22T02:35:02;59.38;;;18.60;;
17965;SDS011;9108;53.204;10.424;2023-02-22T02:37:33;56.78;;;17.65;;
17965;SDS011;9108;53.204;10.424;2023-02-22T02:40:06;54.10;;;17.42;;
17965;SDS011;9108;53.204;10.424;2023-02-22T02:42:37;56.42;;;17.17;;
17965;SDS011;9108;53.204;10.424;2023-02-22T02:45:08;58.75;;;18.08;;
17965;SDS011;9108;53.204;10.424;2023-02-22T02:47:39;58.00;;;17.60;;
17965;SDS011;9108;53.204;10.424;2023-02-22T02:50:08;61.95;;;18.30;;
17965;SDS011;9108;53.204;10.424;2023-02-22T02:52:37;64.47;;;18.83;;
17965;SDS011;9108;53.204;10.424;2023-02-22T02:55:06;65.00;;;18.35;;
17965;SDS011;9108;53.204;10.424;2023-02-22T02:57:35;60.83;;;18.67;;
17965;SDS011;9108;53.204;10.424;2023-02-22T03:00:03;60.17;;;17.48;;
17965;SDS011;9108;53.204;10.424;2023-02-22T03:02:48;66.83;;;18.17;;
17965;SDS011;9108;53.204;10.424;2023-02-22T03:05:21;58.03;;;17.38;;
17965;SDS011;9108;53.204;10.424;2023-02-22T03:07:54;70.63;;;19.23;;
17965;SDS011;9108;53.204;10.424;2023-02-22T03:10:29;65.28;;;18.70;;
17965;SDS011;9108;53.204;10.424;2023-02-22T03:13:06;67.97;;;18.77;;
17965;SDS011;9108;53.204;10.424;2023-02-22T03:15:36;72.05;;;18.90;;
17965;SDS011;9108;53.204;10.424;2023-02-22T03:18:14;71.50;;;19.40;;
17965;SDS011;9108;53.204;10.424;2023-02-22T03:20:47;65.35;;;19.25;;
17965;SDS011;9108;53.204;10.424;2023-02-22T03:23:19;63.83;;;18.73;;
17965;SDS011;9108;53.204;10.424;2023-02-22T03:25:50;65.40;;;19.73;;
17965;SDS011;9108;53.204;10.424;2023-02-22T03:28:18;66.07;;;19.15;;
17965;SDS011;9108;53.204;10.424;2023-02-22T03:30:47;68.90;;;18.90;;
17965;SDS011;9108;53.204;10.424;2023-02-22T03:33:18;62.63;;;18.98;;
17965;SDS011;9108;53.204;10.424;2023-02-22T03:35:47;60.45;;;18.20;;
17965;SDS011;9108;53.204;10.424;2023-02-22T03:38:20;55.42;;;17.10;;
17965;SDS011;9108;53.204;10.424;2023-02-22T03:40:50;60.10;;;18.23;;
17965;SDS011;9108;53.204;10.424;2023-02-22T03:43:20;62.55;;;18.83;;
17965;SDS011;9108;53.204;10.424;2023-02-22T03:45:48;58.17;;;17.85;;
17965;SDS011;9108;53.204;10.424;2023-02-22T03:48:20;58.53;;;17.15;;
17965;SDS011;9108;53.204;10.424;2023-02-22T03:50:49;58.47;;;17.45;;
17965;SDS011;9108;53.204;10.424;2023-02-22T03:53:17;58.33;;;17.88;;
17965;SDS011;9108;53.204;10.424;2023-02-22T03:55:47;56.88;;;17.33;;
17965;SDS011;9108;53.204;10.424;2023-02-22T03:58:15;57.20;;;17.85;;
17965;SDS011;9108;53.204;10.424;2023-02-22T04:00:44;56.22;;;18.08;;
17965;SDS011;9108;53.204;10.424;2023-02-22T04:03:11;58.00;;;17.60;;
17965;SDS011;9108;53.204;10.424;2023-02-22T04:05:40;61.70;;;18.73;;
17965;SDS011;9108;53.204;10.424;2023-02-22T04:08:07;58.63;;;18.42;;
17965;SDS011;9108;53.204;10.424;2023-02-22T04:10:34;58.45;;;17.50;;
17965;SDS011;9108;53.204;10.424;2023-02-22T04:13:02;55.03;;;17.00;;
17965;SDS011;9108;53.204;10.424;2023-02-22T04:15:31;63.10;;;17.35;;
17965;SDS011;9108;53.204;10.424;2023-02-22T04:17:58;56.38;;;17.30;;
17965;SDS011;9108;53.204;10.424;2023-02-22T04:20:25;61.30;;;18.00;;
17965;SDS011;9108;53.204;10.424;2023-02-22T04:22:54;57.30;;;17.88;;
17965;SDS011;9108;53.204;10.424;2023-02-22T04:25:21;54.97;;;17.20;;
17965;SDS011;9108;53.204;10.424;2023-02-22T04:27:49;57.92;;;17.70;;
17965;SDS011;9108;53.204;10.424;2023-02-22T04:30:16;58.92;;;18.23;;
17965;SDS011;9108;53.204;10.424;2023-02-22T04:32:44;60.72;;;17.60;;
17965;SDS011;9108;53.204;10.424;2023-02-22T04:35:11;57.08;;;17.00;;
17965;SDS011;9108;53.204;10.424;2023-02-22T04:37:38;53.70;;;16.90;;
17965;SDS011;9108;53.204;10.424;2023-02-22T04:40:07;60.58;;;17.33;;
17965;SDS011;9108;53.204;10.424;2023-02-22T04:42:35;57.03;;;17.20;;
17965;SDS011;9108;53.204;10.424;2023-02-22T04:45:03;55.75;;;17.40;;
17965;SDS011;9108;53.204;10.424;2023-02-22T04:47:32;52.77;;;16.73;;
17965;SDS011;9108;53.204;10.424;2023-02-22T04:49:59;53.28;;;16.40;;
17965;SDS011;9108;53.204;10.424;2023-02-22T04:52:26;50.97;;;16.53;;
17965;SDS011;9108;53.204;10.424;2023-02-22T04:54:53;53.15;;;17.45;;
17965;SDS011;9108;53.204;10.424;2023-02-22T04:57:22;55.00;;;18.10;;
17965;SDS011;9108;53.204;10.424;2023-02-22T04:59:49;59.30;;;18.20;;
17965;SDS011;9108;53.204;10.424;2023-02-22T05:02:16;58.15;;;18.08;;
17965;SDS011;9108;53.204;10.424;2023-02-22T05:04:43;62.40;;;18.63;;
17965;SDS011;9108;53.204;10.424;2023-02-22T05:07:11;59.72;;;19.67;;
17965;SDS011;9108;53.204;10.424;2023-02-22T05:09:38;58.20;;;19.20;;
17965;SDS011;9108;53.204;10.424;2023-02-22T05:12:05;62.35;;;18.45;;
17965;SDS011;9108;53.204;10.424;2023-02-22T05:14:34;61.35;;;18.45;;
17965;SDS011;9108;53.204;10.424;2023-02-22T05:17:01;59.22;;;18.67;;
17965;SDS011;9108;53.204;10.424;2023-02-22T05:19:28;59.55;;;18.17;;
17965;SDS011;9108;53.204;10.424;2023-02-22T05:21:56;64.32;;;19.23;;
17965;SDS011;9108;53.204;10.424;2023-02-22T05:24:23;65.88;;;20.23;;
17965;SDS011;9108;53.204;10.424;2023-02-22T05:26:50;71.97;;;19.63;;
17965;SDS011;9108;53.204;10.424;2023-02-22T05:29:18;64.23;;;19.23;;
17965;SDS011;9108;53.204;10.424;2023-02-22T05:31:46;68.87;;;20.17;;
17965;SDS011;9108;53.204;10.424;2023-02-22T05:34:14;72.60;;;19.95;;
17965;SDS011;9108;53.204;10.424;2023-02-22T05:36:41;69.32;;;19.90;;
17965;SDS011;9108;53.204;10.424;2023-02-22T05:39:08;79.93;;;21.25;;
17965;SDS011;9108;53.204;10.424;2023-02-22T05:41:36;77.18;;;21.10;;
17965;SDS011;9108;53.204;10.424;2023-02-22T05:44:03;78.13;;;21.13;;
17965;SDS011;9108;53.204;10.424;2023-02-22T05:46:30;76.13;;;20.47;;
17965;SDS011;9108;53.204;10.424;2023-02-22T05:48:59;73.60;;;20.70;;
17965;SDS011;9108;53.204;10.424;2023-02-22T05:51:26;77.57;;;20.92;;
17965;SDS011;9108;53.204;10.424;2023-02-22T05:53:53;77.28;;;20.80;;
17965;SDS011;9108;53.204;10.424;2023-02-22T05:56:21;77.33;;;21.07;;
17965;SDS011;9108;53.204;10.424;2023-02-22T05:58:48;99.25;;;21.52;;
17965;SDS011;9108;53.204;10.424;2023-02-22T06:01:15;82.70;;;21.00;;
17965;SDS011;9108;53.204;10.424;2023-02-22T06:03:45;82.78;;;21.23;;
17965;SDS011;9108;53.204;10.424;2023-02-22T06:06:14;86.10;;;21.55;;
17965;SDS011;9108;53.204;10.424;2023-02-22T06:08:41;100.68;;;21.63;;
17965;SDS011;9108;53.204;10.424;2023-02-22T06:11:08;96.30;;;22.38;;
17965;SDS011;9108;53.204;10.424;2023-02-22T06:13:35;91.70;;;22.65;;
17965;SDS011;9108;53.204;10.424;2023-02-22T06:16:03;96.93;;;21.98;;
17965;SDS011;9108;53.204;10.424;2023-02-22T06:18:30;88.63;;;22.10;;
17965;SDS011;9108;53.204;10.424;2023-02-22T06:20:57;90.90;;;23.02;;
17965;SDS011;9108;53.204;10.424;2023-02-22T06:23:26;148.13;;;29.27;;
17965;SDS011;9108;53.204;10.424;2023-02-22T06:25:53;107.72;;;30.60;;
17965;SDS011;9108;53.204;10.424;2023-02-22T06:28:20;113.38;;;28.08;;
17965;SDS011;9108;53.204;10.424;2023-02-22T06:30:47;172.60;;;54.03;;
17965;SDS011;9108;53.204;10.424;2023-02-22T06:33:14;170.00;;;59.58;;
17965;SDS011;9108;53.204;10.424;2023-02-22T06:35:42;162.80;;;47.22;;
17965;SDS011;9108;53.204;10.424;2023-02-22T06:38:09;114.50;;;32.78;;
17965;SDS011;9108;53.204;10.424;2023-02-22T06:40:38;143.65;;;35.15;;
17965;SDS011;9108;53.204;10.424;2023-02-22T06:43:05;115.30;;;32.03;;
17965;SDS011;9108;53.204;10.424;2023-02-22T06:45:32;127.07;;;31.37;;
17965;SDS011;9108;53.204;10.424;2023-02-22T06:47:59;115.50;;;30.85;;
17965;SDS011;9108;53.204;10.424;2023-02-22T06:50:27;86.72;;;21.58;;
17965;SDS011;9108;53.204;10.424;2023-02-22T06:52:54;111.20;;;31.00;;
17965;SDS011;9108;53.204;10.424;2023-02-22T06:55:22;99.50;;;27.00;;
17965;SDS011;9108;53.204;10.424;2023-02-22T06:57:51;103.55;;;23.48;;
17965;SDS011;9108;53.204;10.424;2023-02-22T07:00:19;94.70;;;21.65;;
17965;SDS011;9108;53.204;10.424;2023-02-22T07:02:47;113.93;;;22.73;;
17965;SDS011;9108;53.204;10.424;2023-02-22T07:05:15;91.07;;;22.58;;
17965;SDS011;9108;53.204;10.424;2023-02-22T07:07:42;107.85;;;26.65;;
17965;SDS011;9108;53.204;10.424;2023-02-22T07:13:16;109.90;;;25.48;;
17965;SDS011;9108;53.204;10.424;2023-02-22T07:15:43;101.72;;;25.77;;
17965;SDS011;9108;53.204;10.424;2023-02-22T07:18:11;97.82;;;24.65;;
17965;SDS011;9108;53.204;10.424;2023-02-22T07:20:40;113.43;;;27.88;;
17965;SDS011;9108;53.204;10.424;2023-02-22T07:23:07;92.07;;;23.67;;
17965;SDS011;9108;53.204;10.424;2023-02-22T07:25:34;96.53;;;24.65;;
17965;SDS011;9108;53.204;10.424;2023-02-22T07:28:02;93.45;;;23.58;;
17965;SDS011;9108;53.204;10.424;2023-02-22T07:30:31;92.95;;;23.58;;
17965;SDS011;9108;53.204;10.424;2023-02-22T07:32:59;88.70;;;24.23;;
17965;SDS011;9108;53.204;10.424;2023-02-22T07:35:29;88.18;;;25.77;;
17965;SDS011;9108;53.204;10.424;2023-02-22T07:38:06;84.30;;;23.48;;
17965;SDS011;9108;53.204;10.424;2023-02-22T07:40:42;83.95;;;23.05;;
17965;SDS011;9108;53.204;10.424;2023-02-22T07:43:24;85.85;;;22.80;;
17965;SDS011;9108;53.204;10.424;2023-02-22T07:45:53;80.30;;;22.27;;
17965;SDS011;9108;53.204;10.424;2023-02-22T07:48:21;82.25;;;23.30;;
17965;SDS011;9108;53.204;10.424;2023-02-22T07:50:48;80.07;;;23.25;;
17965;SDS011;9108;53.204;10.424;2023-02-22T07:53:17;80.70;;;23.30;;
17965;SDS011;9108;53.204;10.424;2023-02-22T07:55:44;85.57;;;24.38;;
17965;SDS011;9108;53.204;10.424;2023-02-22T07:58:13;79.72;;;23.67;;
17965;SDS011;9108;53.204;10.424;2023-02-22T08:00:44;79.43;;;23.20;;
17965;SDS011;9108;53.204;10.424;2023-02-22T08:03:14;86.45;;;24.73;;
17965;SDS011;9108;53.204;10.424;2023-02-22T08:05:43;85.73;;;23.33;;
17965;SDS011;9108;53.204;10.424;2023-02-22T08:08:11;86.97;;;24.57;;
17965;SDS011;9108;53.204;10.424;2023-02-22T08:10:38;82.10;;;23.63;;
17965;SDS011;9108;53.204;10.424;2023-02-22T08:13:06;86.97;;;24.58;;
17965;SDS011;9108;53.204;10.424;2023-02-22T08:15:34;92.72;;;25.30;;
17965;SDS011;9108;53.204;10.424;2023-02-22T08:18:01;86.60;;;24.77;;
17965;SDS011;9108;53.204;10.424;2023-02-22T08:20:30;93.00;;;26.03;;
17965;SDS011;9108;53.204;10.424;2023-02-22T08:22:57;82.70;;;24.65;;
17965;SDS011;9108;53.204;10.424;2023-02-22T08:25:25;94.28;;;26.13;;
17965;SDS011;9108;53.204;10.424;2023-02-22T08:27:55;90.30;;;25.95;;
17965;SDS011;9108;53.204;10.424;2023-02-22T08:30:25;94.85;;;28.38;;
17965;SDS011;9108;53.204;10.424;2023-02-22T08:32:52;85.57;;;26.27;;
17965;SDS011;9108;53.204;10.424;2023-02-22T08:35:20;89.35;;;26.15;;
17965;SDS011;9108;53.204;10.424;2023-02-22T08:37:49;88.13;;;25.95;;
17965;SDS011;9108;53.204;10.424;2023-02-22T08:40:18;91.05;;;26.52;;
17965;SDS011;9108;53.204;10.424;2023-02-22T08:42:46;97.05;;;27.65;;
17965;SDS011;9108;53.204;10.424;2023-02-22T08:45:13;83.13;;;26.45;;
17965;SDS011;9108;53.204;10.424;2023-02-22T08:47:40;86.43;;;27.55;;
17965;SDS011;9108;53.204;10.424;2023-02-22T08:50:08;84.67;;;26.73;;
17965;SDS011;9108;53.204;10.424;2023-02-22T08:52:36;85.18;;;26.13;;
17965;SDS011;9108;53.204;10.424;2023-02-22T08:55:05;86.50;;;28.00;;
17965;SDS011;9108;53.204;10.424;2023-02-22T08:57:32;83.95;;;27.58;;
17965;SDS011;9108;53.204;10.424;2023-02-22T08:59:59;89.68;;;28.48;;
17965;SDS011;9108;53.204;10.424;2023-02-22T09:02:26;85.60;;;27.77;;
17965;SDS011;9108;53.204;10.424;2023-02-22T09:04:53;84.93;;;27.98;;
17965;SDS011;9108;53.204;10.424;2023-02-22T09:07:21;89.05;;;28.38;;
17965;SDS011;9108;53.204;10.424;2023-02-22T09:09:48;90.65;;;29.80;;
17965;SDS011;9108;53.204;10.424;2023-02-22T09:12:17;87.50;;;29.40;;
17965;SDS011;9108;53.204;10.424;2023-02-22T09:14:44;89.67;;;29.50;;
17965;SDS011;9108;53.204;10.424;2023-02-22T09:17:11;83.07;;;29.48;;
17965;SDS011;9108;53.204;10.424;2023-02-22T09:19:38;85.67;;;29.50;;
17965;SDS011;9108;53.204;10.424;2023-02-22T09:22:05;84.78;;;30.42;;
17965;SDS011;9108;53.204;10.424;2023-02-22T09:24:32;87.43;;;28.90;;
17965;SDS011;9108;53.204;10.424;2023-02-22T09:27:00;84.03;;;28.63;;
17965;SDS011;9108;53.204;10.424;2023-02-22T09:29:29;83.07;;;29.58;;
17965;SDS011;9108;53.204;10.424;2023-02-22T09:31:56;82.72;;;30.25;;
17965;SDS011;9108;53.204;10.424;2023-02-22T09:34:24;83.37;;;30.13;;
17965;SDS011;9108;53.204;10.424;2023-02-22T09:36:53;82.70;;;30.08;;
17965;SDS011;9108;53.204;10.424;2023-02-22T09:39:21;86.43;;;30.85;;
17965;SDS011;9108;53.204;10.424;2023-02-22T09:41:50;89.20;;;31.42;;
17965;SDS011;9108;53.204;10.424;2023-02-22T09:44:21;86.10;;;30.88;;
17965;SDS011;9108;53.204;10.424;2023-02-22T09:46:52;86.05;;;31.17;;
17965;SDS011;9108;53.204;10.424;2023-02-22T09:49:20;84.10;;;30.88;;
17965;SDS011;9108;53.204;10.424;2023-02-22T09:51:51;83.80;;;31.55;;
17965;SDS011;9108;53.204;10.424;2023-02-22T09:54:22;83.47;;;31.27;;
17965;SDS011;9108;53.204;10.424;2023-02-22T09:56:51;79.82;;;30.08;;
17965;SDS011;9108;53.204;10.424;2023-02-22T09:59:20;75.37;;;29.37;;
17965;SDS011;9108;53.204;10.424;2023-02-22T10:01:54;72.45;;;28.25;;
17965;SDS011;9108;53.204;10.424;2023-02-22T10:04:23;72.35;;;28.98;;
17965;SDS011;9108;53.204;10.424;2023-02-22T10:07:00;72.82;;;27.77;;
17965;SDS011;9108;53.204;10.424;2023-02-22T10:09:31;65.22;;;27.45;;
17965;SDS011;9108;53.204;10.424;2023-02-22T10:12:02;67.85;;;29.02;;
17965;SDS011;9108;53.204;10.424;2023-02-22T10:14:45;64.45;;;26.42;;
17965;SDS011;9108;53.204;10.424;2023-02-22T10:17:18;66.47;;;27.23;;
17965;SDS011;9108;53.204;10.424;2023-02-22T10:19:50;63.35;;;26.88;;
17965;SDS011;9108;53.204;10.424;2023-02-22T10:22:24;63.05;;;26.83;;
17965;SDS011;9108;53.204;10.424;2023-02-22T10:24:56;60.33;;;25.88;;
17965;SDS011;9108;53.204;10.424;2023-02-22T10:27:27;60.75;;;25.15;;
17965;SDS011;9108;53.204;10.424;2023-02-22T10:29:59;59.70;;;25.33;;
17965;SDS011;9108;53.204;10.424;2023-02-22T10:32:38;60.30;;;27.17;;
17965;SDS011;9108;53.204;10.424;2023-02-22T10:35:19;56.73;;;24.87;;
17965;SDS011;9108;53.204;10.424;2023-02-22T10:38:14;57.58;;;25.23;;
17965;SDS011;9108;53.204;10.424;2023-02-22T10:40:52;57.80;;;26.27;;
17965;SDS011;9108;53.204;10.424;2023-02-22T10:43:20;53.78;;;24.13;;
17965;SDS011;9108;53.204;10.424;2023-02-22T10:45:50;53.17;;;23.90;;
17965;SDS011;9108;53.204;10.424;2023-02-22T10:48:21;53.47;;;23.40;;
17965;SDS011;9108;53.204;10.424;2023-02-22T10:50:49;51.43;;;23.00;;
17965;SDS011;9108;53.204;10.424;2023-02-22T10:53:18;45.72;;;20.88;;
17965;SDS011;9108;53.204;10.424;2023-02-22T10:56:04;52.05;;;23.58;;
17965;SDS011;9108;53.204;10.424;2023-02-22T10:58:38;54.95;;;23.85;;
17965;SDS011;9108;53.204;10.424;2023-02-22T11:01:16;56.27;;;25.00;;
17965;SDS011;9108;53.204;10.424;2023-02-22T11:03:44;47.50;;;21.35;;
17965;SDS011;9108;53.204;10.424;2023-02-22T11:06:18;48.63;;;21.77;;
17965;SDS011;9108;53.204;10.424;2023-02-22T11:08:45;44.88;;;20.60;;
17965;SDS011;9108;53.204;10.424;2023-02-22T11:11:20;48.63;;;21.95;;
17965;SDS011;9108;53.204;10.424;2023-02-22T11:13:52;42.88;;;19.77;;
17965;SDS011;9108;53.204;10.424;2023-02-22T11:16:24;45.60;;;20.80;;
17965;SDS011;9108;53.204;10.424;2023-02-22T11:18:59;38.92;;;18.75;;
17965;SDS011;9108;53.204;10.424;2023-02-22T11:21:26;43.00;;;19.27;;
17965;SDS011;9108;53.204;10.424;2023-02-22T11:24:01;41.35;;;19.50;;
17965;SDS011;9108;53.204;10.424;2023-02-22T11:26:28;39.75;;;18.60;;
17965;SDS011;9108;53.204;10.424;2023-02-22T11:29:05;38.15;;;17.40;;
17965;SDS011;9108;53.204;10.424;2023-02-22T11:31:39;40.42;;;18.27;;
17965;SDS011;9108;53.204;10.424;2023-02-22T11:34:23;37.20;;;17.48;;
17965;SDS011;9108;53.204;10.424;2023-02-22T11:36:51;38.85;;;17.55;;
17965;SDS011;9108;53.204;10.424;2023-02-22T11:39:22;36.47;;;17.05;;
17965;SDS011;9108;53.204;10.424;2023-02-22T11:41:49;35.55;;;16.77;;
17965;SDS011;9108;53.204;10.424;2023-02-22T11:44:21;34.72;;;15.30;;
17965;SDS011;9108;53.204;10.424;2023-02-22T11:46:49;33.72;;;15.30;;
17965;SDS011;9108;53.204;10.424;2023-02-22T11:49:21;33.65;;;14.85;;
17965;SDS011;9108;53.204;10.424;2023-02-22T11:51:52;34.10;;;14.98;;
17965;SDS011;9108;53.204;10.424;2023-02-22T11:54:25;30.75;;;13.82;;
17965;SDS011;9108;53.204;10.424;2023-02-22T11:56:58;31.70;;;13.77;;
17965;SDS011;9108;53.204;10.424;2023-02-22T11:59:32;26.20;;;12.98;;
17965;SDS011;9108;53.204;10.424;2023-02-22T12:02:04;26.27;;;12.27;;
17965;SDS011;9108;53.204;10.424;2023-02-22T12:04:53;24.48;;;11.70;;
17965;SDS011;9108;53.204;10.424;2023-02-22T12:07:39;26.50;;;11.90;;
17965;SDS011;9108;53.204;10.424;2023-02-22T12:10:15;24.25;;;11.55;;
17965;SDS011;9108;53.204;10.424;2023-02-22T12:12:49;24.33;;;11.35;;
17965;SDS011;9108;53.204;10.424;2023-02-22T12:15:22;25.80;;;11.77;;
17965;SDS011;9108;53.204;10.424;2023-02-22T12:17:55;21.60;;;10.52;;
17965;SDS011;9108;53.204;10.424;2023-02-22T12:20:26;21.58;;;10.35;;
17965;SDS011;9108;53.204;10.424;2023-02-22T12:22:56;27.55;;;11.45;;
17965;SDS011;9108;53.204;10.424;2023-02-22T12:25:27;23.65;;;10.50;;
17965;SDS011;9108;53.204;10.424;2023-02-22T12:27:57;19.95;;;9.27;;
17965;SDS011;9108;53.204;10.424;2023-02-22T12:30:26;18.45;;;8.88;;
17965;SDS011;9108;53.204;10.424;2023-02-22T12:32:56;19.20;;;8.65;;
17965;SDS011;9108;53.204;10.424;2023-02-22T12:35:26;19.70;;;9.18;;
17965;SDS011;9108;53.204;10.424;2023-02-22T12:37:57;21.13;;;9.40;;
17965;SDS011;9108;53.204;10.424;2023-02-22T12:40:28;20.23;;;9.30;;
17965;SDS011;9108;53.204;10.424;2023-02-22T12:42:59;20.90;;;9.13;;
17965;SDS011;9108;53.204;10.424;2023-02-22T12:51:47;21.58;;;10.80;;
17965;SDS011;9108;53.204;10.424;2023-02-22T12:54:17;23.58;;;10.90;;
17965;SDS011;9108;53.204;10.424;2023-02-22T12:56:48;22.48;;;10.73;;
17965;SDS011;9108;53.204;10.424;2023-02-22T13:14:42;20.38;;;9.10;;
17965;SDS011;9108;53.204;10.424;2023-02-22T13:17:13;22.27;;;9.60;;
17965;SDS011;9108;53.204;10.424;2023-02-22T13:19:45;19.60;;;9.57;;
17965;SDS011;9108;53.204;10.424;2023-02-22T13:22:18;21.00;;;9.70;;
17965;SDS011;9108;53.204;10.424;2023-02-22T13:24:57;22.47;;;9.97;;
17965;SDS011;9108;53.204;10.424;2023-02-22T13:27:35;21.85;;;10.13;;
17965;SDS011;9108;53.204;10.424;2023-02-22T13:30:05;21.63;;;10.30;;
17965;SDS011;9108;53.204;10.424;2023-02-22T13:35:46;24.58;;;11.23;;
17965;SDS011;9108;53.204;10.424;2023-02-22T13:38:20;23.88;;;11.02;;
17965;SDS011;9108;53.204;10.424;2023-02-22T13:41:03;25.50;;;11.23;;
17965;SDS011;9108;53.204;10.424;2023-02-22T13:46:23;25.98;;;11.40;;
17965;SDS011;9108;53.204;10.424;2023-02-22T13:49:00;29.60;;;12.32;;
17965;SDS011;9108;53.204;10.424;2023-02-22T13:51:32;30.48;;;12.57;;
17965;SDS011;9108;53.204;10.424;2023-02-22T13:54:02;28.52;;;12.48;;
17965;SDS011;9108;53.204;10.424;2023-02-22T13:56:33;29.23;;;12.25;;
17965;SDS011;9108;53.204;10.424;2023-02-22T13:59:00;29.88;;;13.07;;
17965;SDS011;9108;53.204;10.424;2023-02-22T14:01:43;29.77;;;12.60;;
17965;SDS011;9108;53.204;10.424;2023-02-22T14:04:34;29.85;;;12.38;;
17965;SDS011;9108;53.204;10.424;2023-02-22T14:07:03;28.05;;;12.85;;
17965;SDS011;9108;53.204;10.424;2023-02-22T14:09:41;29.10;;;12.68;;
17965;SDS011;9108;53.204;10.424;2023-02-22T14:12:12;28.73;;;12.45;;
17965;SDS011;9108;53.204;10.424;2023-02-22T14:15:12;29.63;;;13.10;;
17965;SDS011;9108;53.204;10.424;2023-02-22T14:17:42;30.35;;;13.07;;
17965;SDS011;9108;53.204;10.424;2023-02-22T14:20:19;29.52;;;12.75;;
17965;SDS011;9108;53.204;10.424;2023-02-22T14:22:54;31.52;;;12.60;;
17965;SDS011;9108;53.204;10.424;2023-02-22T14:25:31;33.08;;;13.13;;
17965;SDS011;9108;53.204;10.424;2023-02-22T14:28:00;27.67;;;12.37;;
17965;SDS011;9108;53.204;10.424;2023-02-22T14:30:29;29.75;;;12.63;;
17965;SDS011;9108;53.204;10.424;2023-02-22T14:32:58;30.35;;;12.90;;
17965;SDS011;9108;53.204;10.424;2023-02-22T14:35:27;28.10;;;12.52;;
17965;SDS011;9108;53.204;10.424;2023-02-22T14:37:57;25.73;;;12.13;;
17965;SDS011;9108;53.204;10.424;2023-02-22T14:40:25;29.33;;;12.70;;
17965;SDS011;9108;53.204;10.424;2023-02-22T14:42:57;29.65;;;12.77;;
17965;SDS011;9108;53.204;10.424;2023-02-22T14:45:26;34.97;;;13.35;;
17965;SDS011;9108;53.204;10.424;2023-02-22T14:47:59;47.80;;;22.70;;
17965;SDS011;9108;53.204;10.424;2023-02-22T14:50:31;32.60;;;13.85;;
17965;SDS011;9108;53.204;10.424;2023-02-22T14:53:02;36.78;;;16.23;;
17965;SDS011;9108;53.204;10.424;2023-02-22T14:55:31;31.10;;;14.32;;
17965;SDS011;9108;53.204;10.424;2023-02-22T14:58:04;32.40;;;14.30;;
17965;SDS011;9108;53.204;10.424;2023-02-22T15:00:46;30.30;;;13.55;;
17965;SDS011;9108;53.204;10.424;2023-02-22T15:03:27;29.80;;;12.90;;
17965;SDS011;9108;53.204;10.424;2023-02-22T15:06:03;31.25;;;14.27;;
17965;SDS011;9108;53.204;10.424;2023-02-22T15:08:30;33.45;;;14.00;;
17965;SDS011;9108;53.204;10.424;2023-02-22T15:10:58;30.50;;;13.52;;
17965;SDS011;9108;53.204;10.424;2023-02-22T15:13:29;34.10;;;14.40;;